sensor_id;sensor_type;location;lat;lon;timestamp;temperature;humidity
21849;DHT22;11089;49.852;19.700;2023-05-24T00:00:55;16.60;1.00
21849;DHT22;11089;49.852;19.700;2023-05-24T00:03:56;16.40;99.90
21849;DHT22;11089;49.852;19.700;2023-05-24T00:07:00;16.50;11.30
21849;DHT22;11089;49.852;19.700;2023-05-24T00:10:05;16.50;99.90
21849;DHT22;11089;49.852;19.700;2023-05-24T00:13:06;16.40;1.00
21849;DHT22;11089;49.852;19.700;2023-05-24T00:16:07;16.40;11.60
21849;DHT22;11089;49.852;19.700;2023-05-24T00:19:08;16.40;1.00
21849;DHT22;11089;49.852;19.700;2023-05-24T00:22:10;16.40;1.00
21849;DHT22;11089;49.852;19.700;2023-05-24T00:25:13;16.30;1.00
21849;DHT22;11089;49.852;19.700;2023-05-24T00:28:14;16.30;1.00
21849;DHT22;11089;49.852;19.700;2023-05-24T00:31:15;16.20;1.00
21849;DHT22;11089;49.852;19.700;2023-05-24T00:34:16;16.20;1.00
21849;DHT22;11089;49.852;19.700;2023-05-24T00:37:17;16.20;20.40
21849;DHT22;11089;49.852;19.700;2023-05-24T00:40:18;16.30;99.90
21849;DHT22;11089;49.852;19.700;2023-05-24T00:43:19;16.20;99.90
21849;DHT22;11089;49.852;19.700;2023-05-24T00:46:24;16.10;99.90
21849;DHT22;11089;49.852;19.700;2023-05-24T00:49:26;16.20;1.00
21849;DHT22;11089;49.852;19.700;2023-05-24T00:52:27;16.20;1.00
21849;DHT22;11089;49.852;19.700;2023-05-24T00:55:29;16.30;1.00
21849;DHT22;11089;49.852;19.700;2023-05-24T00:58:31;16.30;1.00
21849;DHT22;11089;49.852;19.700;2023-05-24T01:01:32;16.30;1.00
21849;DHT22;11089;49.852;19.700;2023-05-24T01:04:34;16.30;1.00
21849;DHT22;11089;49.852;19.700;2023-05-24T01:07:56;16.30;1.00
21849;DHT22;11089;49.852;19.700;2023-05-24T01:11:05;16.30;1.00
21849;DHT22;11089;49.852;19.700;2023-05-24T01:17:39;16.40;1.00
21849;DHT22;11089;49.852;19.700;2023-05-24T01:20:42;16.30;1.00
21849;DHT22;11089;49.852;19.700;2023-05-24T01:27:07;16.40;1.00
21849;DHT22;11089;49.852;19.700;2023-05-24T01:30:09;16.30;1.00
21849;DHT22;11089;49.852;19.700;2023-05-24T01:33:10;16.30;99.90
21849;DHT22;11089;49.852;19.700;2023-05-24T01:36:11;16.30;1.00
21849;DHT22;11089;49.852;19.700;2023-05-24T01:39:12;16.30;95.50
21849;DHT22;11089;49.852;19.700;2023-05-24T01:45:32;16.10;99.90
21849;DHT22;11089;49.852;19.700;2023-05-24T01:51:43;16.10;99.90
21849;DHT22;11089;49.852;19.700;2023-05-24T01:54:51;16.10;99.90
21849;DHT22;11089;49.852;19.700;2023-05-24T01:57:56;16.10;99.90
21849;DHT22;11089;49.852;19.700;2023-05-24T02:00:58;16.10;99.90
21849;DHT22;11089;49.852;19.700;2023-05-24T02:04:00;16.10;99.90
21849;DHT22;11089;49.852;19.700;2023-05-24T02:07:02;16.10;99.90
21849;DHT22;11089;49.852;19.700;2023-05-24T02:10:03;16.10;99.90
21849;DHT22;11089;49.852;19.700;2023-05-24T02:13:05;16.10;99.90
21849;DHT22;11089;49.852;19.700;2023-05-24T02:16:06;16.10;99.90
21849;DHT22;11089;49.852;19.700;2023-05-24T02:19:08;16.00;99.90
21849;DHT22;11089;49.852;19.700;2023-05-24T02:22:09;16.00;99.90
21849;DHT22;11089;49.852;19.700;2023-05-24T02:25:10;16.10;99.90
21849;DHT22;11089;49.852;19.700;2023-05-24T02:28:11;16.10;99.90
21849;DHT22;11089;49.852;19.700;2023-05-24T02:31:12;16.10;99.90
21849;DHT22;11089;49.852;19.700;2023-05-24T02:34:12;16.10;99.90
21849;DHT22;11089;49.852;19.700;2023-05-24T02:37:13;16.10;99.90
21849;DHT22;11089;49.852;19.700;2023-05-24T02:40:15;16.10;99.90
21849;DHT22;11089;49.852;19.700;2023-05-24T02:43:15;16.10;99.90
21849;DHT22;11089;49.852;19.700;2023-05-24T02:46:16;16.10;99.90
21849;DHT22;11089;49.852;19.700;2023-05-24T02:49:17;16.10;99.90
21849;DHT22;11089;49.852;19.700;2023-05-24T02:52:18;16.10;99.90
21849;DHT22;11089;49.852;19.700;2023-05-24T02:55:22;16.10;99.90
21849;DHT22;11089;49.852;19.700;2023-05-24T02:58:23;16.10;99.90
21849;DHT22;11089;49.852;19.700;2023-05-24T03:01:24;16.10;99.90
21849;DHT22;11089;49.852;19.700;2023-05-24T03:04:25;16.10;99.90
21849;DHT22;11089;49.852;19.700;2023-05-24T03:07:26;16.10;99.90
21849;DHT22;11089;49.852;19.700;2023-05-24T03:10:27;16.10;99.90
21849;DHT22;11089;49.852;19.700;2023-05-24T03:13:28;16.10;99.90
21849;DHT22;11089;49.852;19.700;2023-05-24T03:16:29;16.10;99.90
21849;DHT22;11089;49.852;19.700;2023-05-24T03:19:31;16.10;99.90
21849;DHT22;11089;49.852;19.700;2023-05-24T03:22:32;16.10;99.90
21849;DHT22;11089;49.852;19.700;2023-05-24T03:25:33;16.10;99.90
21849;DHT22;11089;49.852;19.700;2023-05-24T03:28:34;16.10;99.90
21849;DHT22;11089;49.852;19.700;2023-05-24T03:31:35;16.20;99.90
21849;DHT22;11089;49.852;19.700;2023-05-24T03:34:36;16.10;99.90
21849;DHT22;11089;49.852;19.700;2023-05-24T03:37:37;16.10;99.90
21849;DHT22;11089;49.852;19.700;2023-05-24T03:40:38;16.10;99.90
21849;DHT22;11089;49.852;19.700;2023-05-24T03:43:39;16.10;99.90
21849;DHT22;11089;49.852;19.700;2023-05-24T03:46:40;16.10;99.90
21849;DHT22;11089;49.852;19.700;2023-05-24T03:49:41;16.10;99.90
21849;DHT22;11089;49.852;19.700;2023-05-24T03:52:42;16.10;99.90
21849;DHT22;11089;49.852;19.700;2023-05-24T03:55:43;16.10;99.90
21849;DHT22;11089;49.852;19.700;2023-05-24T03:58:44;16.10;99.90
21849;DHT22;11089;49.852;19.700;2023-05-24T04:01:45;16.10;99.90
21849;DHT22;11089;49.852;19.700;2023-05-24T04:04:46;16.10;99.90
21849;DHT22;11089;49.852;19.700;2023-05-24T04:07:47;16.10;99.90
21849;DHT22;11089;49.852;19.700;2023-05-24T04:10:48;16.10;99.90
21849;DHT22;11089;49.852;19.700;2023-05-24T04:13:49;16.20;99.90
21849;DHT22;11089;49.852;19.700;2023-05-24T04:16:53;16.10;99.90
21849;DHT22;11089;49.852;19.700;2023-05-24T04:19:54;16.10;99.90
21849;DHT22;11089;49.852;19.700;2023-05-24T04:22:55;16.10;99.90
21849;DHT22;11089;49.852;19.700;2023-05-24T04:25:56;16.00;99.90
21849;DHT22;11089;49.852;19.700;2023-05-24T04:28:57;16.00;99.90
21849;DHT22;11089;49.852;19.700;2023-05-24T04:31:58;16.10;99.90
21849;DHT22;11089;49.852;19.700;2023-05-24T04:35:01;16.10;99.90
21849;DHT22;11089;49.852;19.700;2023-05-24T04:38:03;16.10;99.90
21849;DHT22;11089;49.852;19.700;2023-05-24T04:41:05;16.10;99.90
21849;DHT22;11089;49.852;19.700;2023-05-24T04:44:06;16.00;99.90
21849;DHT22;11089;49.852;19.700;2023-05-24T04:47:07;15.90;99.90
21849;DHT22;11089;49.852;19.700;2023-05-24T04:50:09;15.90;99.90
21849;DHT22;11089;49.852;19.700;2023-05-24T04:53:10;16.00;99.90
21849;DHT22;11089;49.852;19.700;2023-05-24T04:56:11;15.90;99.90
21849;DHT22;11089;49.852;19.700;2023-05-24T04:59:14;16.00;99.90
21849;DHT22;11089;49.852;19.700;2023-05-24T05:02:15;15.90;99.90
21849;DHT22;11089;49.852;19.700;2023-05-24T05:05:17;15.90;99.90
21849;DHT22;11089;49.852;19.700;2023-05-24T05:08:18;15.80;99.90
21849;DHT22;11089;49.852;19.700;2023-05-24T05:11:20;15.70;99.90
21849;DHT22;11089;49.852;19.700;2023-05-24T05:14:21;15.80;99.90
21849;DHT22;11089;49.852;19.700;2023-05-24T05:17:22;15.80;99.90
21849;DHT22;11089;49.852;19.700;2023-05-24T05:20:23;15.70;99.90
21849;DHT22;11089;49.852;19.700;2023-05-24T05:23:24;15.70;99.90
21849;DHT22;11089;49.852;19.700;2023-05-24T05:26:28;15.80;99.90
21849;DHT22;11089;49.852;19.700;2023-05-24T05:29:29;15.70;99.90
21849;DHT22;11089;49.852;19.700;2023-05-24T05:32:30;15.70;99.90
21849;DHT22;11089;49.852;19.700;2023-05-24T05:35:31;15.80;99.90
21849;DHT22;11089;49.852;19.700;2023-05-24T05:38:32;15.70;99.90
21849;DHT22;11089;49.852;19.700;2023-05-24T05:41:35;15.70;99.90
21849;DHT22;11089;49.852;19.700;2023-05-24T05:44:36;15.70;99.90
21849;DHT22;11089;49.852;19.700;2023-05-24T05:47:37;15.60;99.90
21849;DHT22;11089;49.852;19.700;2023-05-24T05:50:38;15.70;99.90
21849;DHT22;11089;49.852;19.700;2023-05-24T05:53:39;15.70;99.90
21849;DHT22;11089;49.852;19.700;2023-05-24T05:56:41;15.70;99.90
21849;DHT22;11089;49.852;19.700;2023-05-24T05:59:45;15.70;99.90
21849;DHT22;11089;49.852;19.700;2023-05-24T06:02:46;15.80;99.90
21849;DHT22;11089;49.852;19.700;2023-05-24T06:05:47;15.80;99.90
21849;DHT22;11089;49.852;19.700;2023-05-24T06:08:47;15.80;99.90
21849;DHT22;11089;49.852;19.700;2023-05-24T06:11:48;15.80;99.90
21849;DHT22;11089;49.852;19.700;2023-05-24T06:14:49;15.80;99.90
21849;DHT22;11089;49.852;19.700;2023-05-24T06:17:51;15.70;99.90
21849;DHT22;11089;49.852;19.700;2023-05-24T06:20:55;15.70;99.90
21849;DHT22;11089;49.852;19.700;2023-05-24T06:23:55;15.70;99.90
21849;DHT22;11089;49.852;19.700;2023-05-24T06:26:57;15.70;99.90
21849;DHT22;11089;49.852;19.700;2023-05-24T06:29:59;15.70;99.90
21849;DHT22;11089;49.852;19.700;2023-05-24T06:33:00;15.70;99.90
21849;DHT22;11089;49.852;19.700;2023-05-24T06:36:02;15.70;99.90
21849;DHT22;11089;49.852;19.700;2023-05-24T06:39:03;15.70;99.90
21849;DHT22;11089;49.852;19.700;2023-05-24T06:42:04;15.80;99.90
21849;DHT22;11089;49.852;19.700;2023-05-24T06:45:06;15.60;99.90
21849;DHT22;11089;49.852;19.700;2023-05-24T06:48:07;15.70;99.90
21849;DHT22;11089;49.852;19.700;2023-05-24T06:51:08;15.80;99.90
21849;DHT22;11089;49.852;19.700;2023-05-24T06:54:09;15.80;99.90
21849;DHT22;11089;49.852;19.700;2023-05-24T06:57:10;15.80;99.90
21849;DHT22;11089;49.852;19.700;2023-05-24T07:00:12;15.70;99.90
21849;DHT22;11089;49.852;19.700;2023-05-24T07:03:14;15.60;99.90
21849;DHT22;11089;49.852;19.700;2023-05-24T07:06:15;15.40;99.90
21849;DHT22;11089;49.852;19.700;2023-05-24T07:09:17;15.40;99.90
21849;DHT22;11089;49.852;19.700;2023-05-24T07:12:18;15.40;99.90
21849;DHT22;11089;49.852;19.700;2023-05-24T07:15:19;15.30;99.90
21849;DHT22;11089;49.852;19.700;2023-05-24T07:18:20;15.20;99.90
21849;DHT22;11089;49.852;19.700;2023-05-24T07:21:21;15.20;99.90
21849;DHT22;11089;49.852;19.700;2023-05-24T07:24:22;15.20;99.90
21849;DHT22;11089;49.852;19.700;2023-05-24T07:27:23;15.10;99.90
21849;DHT22;11089;49.852;19.700;2023-05-24T07:30:24;15.10;99.90
21849;DHT22;11089;49.852;19.700;2023-05-24T07:33:26;15.00;99.90
21849;DHT22;11089;49.852;19.700;2023-05-24T07:36:27;15.00;99.90
21849;DHT22;11089;49.852;19.700;2023-05-24T07:39:31;15.10;99.90
21849;DHT22;11089;49.852;19.700;2023-05-24T07:42:32;15.10;99.90
21849;DHT22;11089;49.852;19.700;2023-05-24T07:45:34;15.10;99.90
21849;DHT22;11089;49.852;19.700;2023-05-24T07:48:34;15.00;99.90
21849;DHT22;11089;49.852;19.700;2023-05-24T07:51:36;14.90;99.90
21849;DHT22;11089;49.852;19.700;2023-05-24T07:54:37;14.90;99.90
21849;DHT22;11089;49.852;19.700;2023-05-24T07:57:38;14.80;99.90
21849;DHT22;11089;49.852;19.700;2023-05-24T08:00:39;14.70;99.90
21849;DHT22;11089;49.852;19.700;2023-05-24T08:03:41;14.70;99.90
21849;DHT22;11089;49.852;19.700;2023-05-24T08:06:42;14.70;99.90
21849;DHT22;11089;49.852;19.700;2023-05-24T08:09:42;14.70;99.90
21849;DHT22;11089;49.852;19.700;2023-05-24T08:12:44;14.40;99.90
21849;DHT22;11089;49.852;19.700;2023-05-24T08:15:45;14.40;99.90
21849;DHT22;11089;49.852;19.700;2023-05-24T08:18:46;14.50;99.90
21849;DHT22;11089;49.852;19.700;2023-05-24T08:21:47;14.40;99.90
21849;DHT22;11089;49.852;19.700;2023-05-24T08:24:48;14.50;99.90
21849;DHT22;11089;49.852;19.700;2023-05-24T08:27:49;14.50;99.90
21849;DHT22;11089;49.852;19.700;2023-05-24T08:30:51;14.30;99.90
21849;DHT22;11089;49.852;19.700;2023-05-24T08:33:52;14.40;99.90
21849;DHT22;11089;49.852;19.700;2023-05-24T08:36:54;14.20;99.90
21849;DHT22;11089;49.852;19.700;2023-05-24T08:39:55;14.20;99.90
21849;DHT22;11089;49.852;19.700;2023-05-24T08:42:59;14.20;99.90
21849;DHT22;11089;49.852;19.700;2023-05-24T08:46:01;14.20;99.90
21849;DHT22;11089;49.852;19.700;2023-05-24T08:49:03;14.00;99.90
21849;DHT22;11089;49.852;19.700;2023-05-24T08:52:05;14.10;99.90
21849;DHT22;11089;49.852;19.700;2023-05-24T08:55:07;13.90;99.90
21849;DHT22;11089;49.852;19.700;2023-05-24T08:58:09;14.00;99.90
21849;DHT22;11089;49.852;19.700;2023-05-24T09:01:12;13.90;99.90
21849;DHT22;11089;49.852;19.700;2023-05-24T09:04:13;14.00;99.90
21849;DHT22;11089;49.852;19.700;2023-05-24T09:07:17;14.00;99.90
21849;DHT22;11089;49.852;19.700;2023-05-24T09:10:19;14.00;99.90
21849;DHT22;11089;49.852;19.700;2023-05-24T09:13:23;13.90;99.90
21849;DHT22;11089;49.852;19.700;2023-05-24T09:16:24;13.90;99.90
21849;DHT22;11089;49.852;19.700;2023-05-24T09:19:25;13.90;99.90
21849;DHT22;11089;49.852;19.700;2023-05-24T09:22:28;14.00;99.90
21849;DHT22;11089;49.852;19.700;2023-05-24T09:25:30;14.00;99.90
21849;DHT22;11089;49.852;19.700;2023-05-24T09:28:31;14.00;99.90
21849;DHT22;11089;49.852;19.700;2023-05-24T09:31:37;14.00;99.90
21849;DHT22;11089;49.852;19.700;2023-05-24T09:34:40;13.90;99.90
21849;DHT22;11089;49.852;19.700;2023-05-24T09:37:41;13.80;99.90
21849;DHT22;11089;49.852;19.700;2023-05-24T09:40:42;13.80;99.90
21849;DHT22;11089;49.852;19.700;2023-05-24T09:43:48;13.80;99.90
21849;DHT22;11089;49.852;19.700;2023-05-24T09:46:49;13.70;99.90
21849;DHT22;11089;49.852;19.700;2023-05-24T09:49:51;13.70;99.90
21849;DHT22;11089;49.852;19.700;2023-05-24T09:52:52;13.70;99.90
21849;DHT22;11089;49.852;19.700;2023-05-24T09:55:54;13.70;99.90
21849;DHT22;11089;49.852;19.700;2023-05-24T09:58:55;13.60;99.90
21849;DHT22;11089;49.852;19.700;2023-05-24T10:02:07;13.60;99.90
21849;DHT22;11089;49.852;19.700;2023-05-24T10:05:12;13.60;99.90
21849;DHT22;11089;49.852;19.700;2023-05-24T10:08:14;13.60;99.90
21849;DHT22;11089;49.852;19.700;2023-05-24T10:11:16;13.70;99.90
21849;DHT22;11089;49.852;19.700;2023-05-24T10:14:17;13.60;99.90
21849;DHT22;11089;49.852;19.700;2023-05-24T10:17:19;13.50;99.90
21849;DHT22;11089;49.852;19.700;2023-05-24T10:20:21;13.50;99.90
21849;DHT22;11089;49.852;19.700;2023-05-24T10:23:23;13.60;99.90
21849;DHT22;11089;49.852;19.700;2023-05-24T10:26:28;13.50;99.90
21849;DHT22;11089;49.852;19.700;2023-05-24T10:32:52;13.60;99.90
21849;DHT22;11089;49.852;19.700;2023-05-24T10:35:56;13.50;99.90
21849;DHT22;11089;49.852;19.700;2023-05-24T10:38:57;13.50;99.90
21849;DHT22;11089;49.852;19.700;2023-05-24T10:42:02;13.40;99.90
21849;DHT22;11089;49.852;19.700;2023-05-24T10:51:38;13.40;99.90
21849;DHT22;11089;49.852;19.700;2023-05-24T10:54:39;13.40;99.90
21849;DHT22;11089;49.852;19.700;2023-05-24T10:57:41;13.40;99.90
21849;DHT22;11089;49.852;19.700;2023-05-24T11:00:42;13.30;99.90
21849;DHT22;11089;49.852;19.700;2023-05-24T11:03:44;13.30;99.90
21849;DHT22;11089;49.852;19.700;2023-05-24T11:06:48;13.30;99.90
21849;DHT22;11089;49.852;19.700;2023-05-24T11:09:50;13.30;99.90
21849;DHT22;11089;49.852;19.700;2023-05-24T11:12:59;13.30;99.90
21849;DHT22;11089;49.852;19.700;2023-05-24T11:16:01;13.30;99.90
21849;DHT22;11089;49.852;19.700;2023-05-24T11:19:28;13.30;99.90
21849;DHT22;11089;49.852;19.700;2023-05-24T11:22:30;13.30;99.90
21849;DHT22;11089;49.852;19.700;2023-05-24T11:25:34;13.20;99.90
21849;DHT22;11089;49.852;19.700;2023-05-24T11:28:38;13.20;99.90
21849;DHT22;11089;49.852;19.700;2023-05-24T11:31:49;13.30;99.90
21849;DHT22;11089;49.852;19.700;2023-05-24T11:34:50;13.40;99.90
21849;DHT22;11089;49.852;19.700;2023-05-24T11:37:51;13.40;99.90
21849;DHT22;11089;49.852;19.700;2023-05-24T11:40:52;13.30;99.90
21849;DHT22;11089;49.852;19.700;2023-05-24T11:43:53;13.40;99.90
21849;DHT22;11089;49.852;19.700;2023-05-24T11:47:01;13.40;99.90
21849;DHT22;11089;49.852;19.700;2023-05-24T11:50:03;13.50;99.90
21849;DHT22;11089;49.852;19.700;2023-05-24T11:53:04;13.60;99.90
21849;DHT22;11089;49.852;19.700;2023-05-24T11:56:06;13.50;99.90
21849;DHT22;11089;49.852;19.700;2023-05-24T11:59:22;13.50;99.90
21849;DHT22;11089;49.852;19.700;2023-05-24T12:02:23;13.50;99.90
21849;DHT22;11089;49.852;19.700;2023-05-24T12:05:24;13.40;99.90
21849;DHT22;11089;49.852;19.700;2023-05-24T12:08:25;13.40;99.90
21849;DHT22;11089;49.852;19.700;2023-05-24T12:11:27;13.40;99.90
21849;DHT22;11089;49.852;19.700;2023-05-24T12:14:30;13.50;99.90
21849;DHT22;11089;49.852;19.700;2023-05-24T12:17:32;13.40;99.90
21849;DHT22;11089;49.852;19.700;2023-05-24T12:20:33;13.40;99.90
21849;DHT22;11089;49.852;19.700;2023-05-24T12:23:34;13.50;99.90
21849;DHT22;11089;49.852;19.700;2023-05-24T12:26:40;13.50;99.90
21849;DHT22;11089;49.852;19.700;2023-05-24T12:29:42;13.40;99.90
21849;DHT22;11089;49.852;19.700;2023-05-24T12:32:43;13.30;99.90
21849;DHT22;11089;49.852;19.700;2023-05-24T12:35:46;13.30;99.90
21849;DHT22;11089;49.852;19.700;2023-05-24T12:38:47;13.40;99.90
21849;DHT22;11089;49.852;19.700;2023-05-24T12:41:52;13.40;99.90
21849;DHT22;11089;49.852;19.700;2023-05-24T12:44:54;13.40;99.90
21849;DHT22;11089;49.852;19.700;2023-05-24T12:47:59;13.40;99.90
21849;DHT22;11089;49.852;19.700;2023-05-24T12:51:02;13.50;99.90
21849;DHT22;11089;49.852;19.700;2023-05-24T12:54:03;13.70;32.90
21849;DHT22;11089;49.852;19.700;2023-05-24T12:57:05;13.50;99.90
21849;DHT22;11089;49.852;19.700;2023-05-24T13:00:07;13.60;99.90
21849;DHT22;11089;49.852;19.700;2023-05-24T13:03:08;13.70;56.30
21849;DHT22;11089;49.852;19.700;2023-05-24T13:06:09;13.70;99.90
21849;DHT22;11089;49.852;19.700;2023-05-24T13:09:10;13.60;99.90
21849;DHT22;11089;49.852;19.700;2023-05-24T13:12:12;13.70;99.90
21849;DHT22;11089;49.852;19.700;2023-05-24T13:15:13;13.70;99.90
21849;DHT22;11089;49.852;19.700;2023-05-24T13:18:14;13.70;99.90
21849;DHT22;11089;49.852;19.700;2023-05-24T13:21:15;13.70;99.90
21849;DHT22;11089;49.852;19.700;2023-05-24T13:24:16;13.70;99.90
21849;DHT22;11089;49.852;19.700;2023-05-24T13:27:18;13.80;94.90
21849;DHT22;11089;49.852;19.700;2023-05-24T13:30:19;13.70;99.90
21849;DHT22;11089;49.852;19.700;2023-05-24T13:33:27;13.80;99.90
21849;DHT22;11089;49.852;19.700;2023-05-24T13:36:27;13.70;99.90
21849;DHT22;11089;49.852;19.700;2023-05-24T13:39:28;13.70;99.90
21849;DHT22;11089;49.852;19.700;2023-05-24T13:42:29;13.90;1.00
21849;DHT22;11089;49.852;19.700;2023-05-24T13:45:30;13.90;45.00
21849;DHT22;11089;49.852;19.700;2023-05-24T13:48:32;13.80;99.90
21849;DHT22;11089;49.852;19.700;2023-05-24T13:51:35;13.90;99.90
21849;DHT22;11089;49.852;19.700;2023-05-24T13:54:36;13.80;99.90
21849;DHT22;11089;49.852;19.700;2023-05-24T13:57:38;13.80;99.90
21849;DHT22;11089;49.852;19.700;2023-05-24T14:00:38;13.80;99.90
21849;DHT22;11089;49.852;19.700;2023-05-24T14:03:42;13.90;99.90
21849;DHT22;11089;49.852;19.700;2023-05-24T14:06:42;14.00;99.90
21849;DHT22;11089;49.852;19.700;2023-05-24T14:09:44;14.00;99.90
21849;DHT22;11089;49.852;19.700;2023-05-24T14:12:45;13.90;99.90
21849;DHT22;11089;49.852;19.700;2023-05-24T14:15:46;14.00;99.90
21849;DHT22;11089;49.852;19.700;2023-05-24T14:18:49;13.90;99.90
21849;DHT22;11089;49.852;19.700;2023-05-24T14:21:51;14.00;99.90
21849;DHT22;11089;49.852;19.700;2023-05-24T14:24:52;14.00;99.90
21849;DHT22;11089;49.852;19.700;2023-05-24T14:27:53;14.00;99.90
21849;DHT22;11089;49.852;19.700;2023-05-24T14:30:54;14.10;99.90
21849;DHT22;11089;49.852;19.700;2023-05-24T14:33:55;14.00;94.80
21849;DHT22;11089;49.852;19.700;2023-05-24T14:36:56;14.00;15.40
21849;DHT22;11089;49.852;19.700;2023-05-24T14:39:57;14.00;1.00
21849;DHT22;11089;49.852;19.700;2023-05-24T14:42:58;13.90;99.90
21849;DHT22;11089;49.852;19.700;2023-05-24T14:45:58;13.90;1.00
21849;DHT22;11089;49.852;19.700;2023-05-24T14:48:59;13.90;1.00
21849;DHT22;11089;49.852;19.700;2023-05-24T14:52:03;13.90;99.90
21849;DHT22;11089;49.852;19.700;2023-05-24T14:55:04;14.00;99.90
21849;DHT22;11089;49.852;19.700;2023-05-24T14:58:06;13.90;99.90
21849;DHT22;11089;49.852;19.700;2023-05-24T15:01:11;13.90;1.00
21849;DHT22;11089;49.852;19.700;2023-05-24T15:04:12;13.80;99.90
21849;DHT22;11089;49.852;19.700;2023-05-24T15:07:13;13.80;99.90
21849;DHT22;11089;49.852;19.700;2023-05-24T15:10:14;13.90;30.90
21849;DHT22;11089;49.852;19.700;2023-05-24T15:13:15;14.00;99.90
21849;DHT22;11089;49.852;19.700;2023-05-24T15:16:17;14.00;41.90
21849;DHT22;11089;49.852;19.700;2023-05-24T15:19:18;14.10;16.30
21849;DHT22;11089;49.852;19.700;2023-05-24T15:22:19;14.00;99.90
21849;DHT22;11089;49.852;19.700;2023-05-24T15:25:20;14.00;99.90
21849;DHT22;11089;49.852;19.700;2023-05-24T15:28:21;14.00;99.90
21849;DHT22;11089;49.852;19.700;2023-05-24T15:31:22;14.10;99.90
21849;DHT22;11089;49.852;19.700;2023-05-24T15:34:23;14.00;99.90
21849;DHT22;11089;49.852;19.700;2023-05-24T15:37:25;14.00;99.90
21849;DHT22;11089;49.852;19.700;2023-05-24T15:40:26;14.10;99.90
21849;DHT22;11089;49.852;19.700;2023-05-24T15:43:28;14.10;99.90
21849;DHT22;11089;49.852;19.700;2023-05-24T15:46:30;14.20;99.90
21849;DHT22;11089;49.852;19.700;2023-05-24T15:49:31;14.10;99.90
21849;DHT22;11089;49.852;19.700;2023-05-24T15:52:34;14.00;99.90
21849;DHT22;11089;49.852;19.700;2023-05-24T15:55:35;14.10;99.90
21849;DHT22;11089;49.852;19.700;2023-05-24T15:58:36;14.00;99.90
21849;DHT22;11089;49.852;19.700;2023-05-24T16:01:37;14.00;99.90
21849;DHT22;11089;49.852;19.700;2023-05-24T16:04:38;14.00;99.90
21849;DHT22;11089;49.852;19.700;2023-05-24T16:07:39;14.00;99.90
21849;DHT22;11089;49.852;19.700;2023-05-24T16:10:41;13.90;99.90
21849;DHT22;11089;49.852;19.700;2023-05-24T16:13:43;13.90;99.90
21849;DHT22;11089;49.852;19.700;2023-05-24T16:16:44;13.90;99.90
21849;DHT22;11089;49.852;19.700;2023-05-24T16:19:45;13.90;99.90
21849;DHT22;11089;49.852;19.700;2023-05-24T16:22:48;13.90;99.90
21849;DHT22;11089;49.852;19.700;2023-05-24T16:25:50;13.90;99.90
21849;DHT22;11089;49.852;19.700;2023-05-24T16:28:51;13.90;99.90
21849;DHT22;11089;49.852;19.700;2023-05-24T16:31:52;13.80;99.90
21849;DHT22;11089;49.852;19.700;2023-05-24T16:34:53;13.90;99.90
21849;DHT22;11089;49.852;19.700;2023-05-24T16:37:54;14.00;99.90
21849;DHT22;11089;49.852;19.700;2023-05-24T16:40:55;13.90;99.90
21849;DHT22;11089;49.852;19.700;2023-05-24T16:43:56;13.80;99.90
21849;DHT22;11089;49.852;19.700;2023-05-24T16:46:57;13.90;99.90
21849;DHT22;11089;49.852;19.700;2023-05-24T16:49:58;13.80;99.90
21849;DHT22;11089;49.852;19.700;2023-05-24T16:52:59;13.80;99.90
21849;DHT22;11089;49.852;19.700;2023-05-24T16:56:00;13.70;99.90
21849;DHT22;11089;49.852;19.700;2023-05-24T16:59:01;13.70;99.90
21849;DHT22;11089;49.852;19.700;2023-05-24T17:02:02;13.80;99.90
21849;DHT22;11089;49.852;19.700;2023-05-24T17:05:03;13.80;99.90
21849;DHT22;11089;49.852;19.700;2023-05-24T17:08:05;13.70;99.90
21849;DHT22;11089;49.852;19.700;2023-05-24T17:11:06;13.80;99.90
21849;DHT22;11089;49.852;19.700;2023-05-24T17:14:07;13.80;99.90
21849;DHT22;11089;49.852;19.700;2023-05-24T17:17:08;13.70;99.90
21849;DHT22;11089;49.852;19.700;2023-05-24T17:20:11;13.80;99.90
21849;DHT22;11089;49.852;19.700;2023-05-24T17:23:12;13.80;99.90
21849;DHT22;11089;49.852;19.700;2023-05-24T17:26:14;13.80;99.90
21849;DHT22;11089;49.852;19.700;2023-05-24T17:29:15;13.70;99.90
21849;DHT22;11089;49.852;19.700;2023-05-24T17:32:16;13.60;99.90
21849;DHT22;11089;49.852;19.700;2023-05-24T17:35:17;13.70;99.90
21849;DHT22;11089;49.852;19.700;2023-05-24T17:38:18;13.70;99.90
21849;DHT22;11089;49.852;19.700;2023-05-24T17:41:19;13.60;99.90
21849;DHT22;11089;49.852;19.700;2023-05-24T17:44:20;13.60;99.90
21849;DHT22;11089;49.852;19.700;2023-05-24T17:47:21;13.60;99.90
21849;DHT22;11089;49.852;19.700;2023-05-24T17:50:22;13.60;99.90
21849;DHT22;11089;49.852;19.700;2023-05-24T17:53:23;13.60;99.90
21849;DHT22;11089;49.852;19.700;2023-05-24T17:56:24;13.50;99.90
21849;DHT22;11089;49.852;19.700;2023-05-24T17:59:25;13.50;99.90
21849;DHT22;11089;49.852;19.700;2023-05-24T18:02:26;13.40;99.90
21849;DHT22;11089;49.852;19.700;2023-05-24T18:05:27;13.40;99.90
21849;DHT22;11089;49.852;19.700;2023-05-24T18:08:29;13.40;99.90
21849;DHT22;11089;49.852;19.700;2023-05-24T18:11:30;13.40;99.90
21849;DHT22;11089;49.852;19.700;2023-05-24T18:14:31;13.50;99.90
21849;DHT22;11089;49.852;19.700;2023-05-24T18:17:32;13.40;99.90
21849;DHT22;11089;49.852;19.700;2023-05-24T18:20:34;13.40;99.90
21849;DHT22;11089;49.852;19.700;2023-05-24T18:23:35;13.40;99.90
21849;DHT22;11089;49.852;19.700;2023-05-24T18:26:39;13.40;99.90
21849;DHT22;11089;49.852;19.700;2023-05-24T18:29:40;13.40;99.90
21849;DHT22;11089;49.852;19.700;2023-05-24T18:32:41;13.40;99.90
21849;DHT22;11089;49.852;19.700;2023-05-24T18:35:42;13.50;99.90
21849;DHT22;11089;49.852;19.700;2023-05-24T18:38:43;13.50;99.90
21849;DHT22;11089;49.852;19.700;2023-05-24T18:41:46;13.40;99.90
21849;DHT22;11089;49.852;19.700;2023-05-24T18:44:47;13.40;99.90
21849;DHT22;11089;49.852;19.700;2023-05-24T18:47:48;13.40;99.90
21849;DHT22;11089;49.852;19.700;2023-05-24T18:50:49;13.40;99.90
21849;DHT22;11089;49.852;19.700;2023-05-24T18:53:51;13.50;99.90
21849;DHT22;11089;49.852;19.700;2023-05-24T18:56:52;13.40;99.90
21849;DHT22;11089;49.852;19.700;2023-05-24T18:59:53;13.40;99.90
21849;DHT22;11089;49.852;19.700;2023-05-24T19:02:54;13.50;99.90
21849;DHT22;11089;49.852;19.700;2023-05-24T19:05:55;13.60;99.90
21849;DHT22;11089;49.852;19.700;2023-05-24T19:08:56;13.40;99.90
21849;DHT22;11089;49.852;19.700;2023-05-24T19:11:59;13.40;99.90
21849;DHT22;11089;49.852;19.700;2023-05-24T19:15:04;13.20;99.90